createdAt,value
2019-02-07T00:02:15.006Z,44.83
2019-02-07T00:04:46.278Z,43.20
2019-02-07T00:07:17.887Z,44.70
2019-02-07T00:09:49.296Z,49.13
2019-02-07T00:12:20.613Z,47.17
2019-02-07T00:14:52.107Z,48.87
2019-02-07T00:17:23.384Z,47.80
2019-02-07T00:19:54.937Z,46.73
2019-02-07T00:22:26.611Z,52.20
2019-02-07T00:24:57.943Z,51.37
2019-02-07T00:27:29.197Z,49.20
2019-02-07T00:30:21.669Z,47.57
2019-02-07T00:32:54.264Z,43.57
2019-02-07T00:35:25.540Z,45.63
2019-02-07T00:37:56.825Z,47.93
2019-02-07T00:40:28.681Z,42.47
2019-02-07T00:43:00.209Z,45.03
2019-02-07T00:45:31.517Z,42.10
2019-02-07T00:48:02.763Z,40.40
2019-02-07T00:50:34.149Z,43.60
2019-02-07T00:53:06.078Z,44.53
2019-02-07T00:55:37.504Z,44.37
2019-02-07T00:58:08.813Z,43.37
2019-02-07T01:00:40.244Z,39.80
2019-02-07T01:03:11.546Z,41.40
2019-02-07T01:05:43.251Z,44.53
2019-02-07T01:08:14.743Z,39.17
2019-02-07T01:10:46.089Z,41.13
2019-02-07T01:13:17.400Z,40.70
2019-02-07T01:15:48.667Z,38.40
2019-02-07T01:18:20.358Z,41.23
2019-02-07T01:20:51.841Z,39.20
2019-02-07T01:23:23.174Z,41.13
2019-02-07T01:25:54.464Z,36.90
2019-02-07T01:28:25.717Z,40.27
2019-02-07T01:30:57.095Z,40.33
2019-02-07T01:33:28.248Z,36.60
2019-02-07T01:35:59.447Z,35.90
2019-02-07T01:38:30.585Z,38.77
2019-02-07T01:41:01.783Z,36.90
2019-02-07T01:43:33.022Z,37.00
2019-02-07T01:46:04.283Z,39.83
2019-02-07T01:48:35.536Z,35.57
2019-02-07T01:51:06.835Z,34.60
2019-02-07T01:53:38.108Z,36.00
2019-02-07T01:56:09.327Z,35.77
2019-02-07T01:58:40.674Z,35.60
2019-02-07T02:01:12.120Z,37.37
2019-02-07T02:03:43.413Z,37.50
2019-02-07T02:06:14.630Z,34.20
2019-02-07T02:08:45.919Z,36.30
2019-02-07T02:11:17.371Z,35.93
2019-02-07T02:13:48.796Z,38.33
2019-02-07T02:16:20.151Z,40.93
2019-02-07T02:18:51.436Z,39.10
2019-02-07T02:21:22.688Z,42.33
2019-02-07T02:23:54.245Z,39.27
2019-02-07T02:26:25.698Z,37.67
2019-02-07T02:28:56.963Z,38.03
2019-02-07T02:31:28.330Z,36.93
2019-02-07T02:33:59.590Z,37.23
2019-02-07T02:36:31.229Z,37.97
2019-02-07T02:39:02.491Z,41.43
2019-02-07T02:41:34.938Z,40.80
2019-02-07T02:44:06.440Z,38.53
2019-02-07T02:46:37.738Z,38.43
2019-02-07T02:49:09.575Z,35.13
2019-02-07T02:51:40.902Z,39.63
2019-02-07T02:54:30.998Z,38.97
2019-02-07T02:57:02.474Z,38.73
2019-02-07T02:59:34.130Z,39.57
2019-02-07T03:02:39.886Z,39.23
2019-02-07T03:05:36.211Z,43.37
2019-02-07T03:08:17.564Z,40.90
2019-02-07T03:11:06.325Z,43.70
2019-02-07T03:13:59.640Z,41.20
2019-02-07T03:17:01.753Z,40.03
2019-02-07T03:19:51.354Z,37.47
2019-02-07T03:22:40.178Z,36.50
2019-02-07T03:25:48.547Z,40.87
2019-02-07T03:28:47.562Z,38.50
2019-02-07T03:31:49.562Z,37.33
2019-02-07T03:34:34.170Z,37.03
2019-02-07T03:37:36.156Z,38.83
2019-02-07T03:40:25.440Z,37.23
2019-02-07T03:43:19.584Z,38.93
2019-02-07T03:46:05.367Z,36.97
2019-02-07T03:48:58.236Z,41.03
2019-02-07T03:52:00.467Z,43.20
2019-02-07T03:55:05.690Z,41.00
2019-02-07T03:57:54.592Z,40.43
2019-02-07T04:00:43.263Z,37.90
2019-02-07T04:03:36.183Z,39.20
2019-02-07T04:06:27.204Z,38.90
2019-02-07T04:09:23.143Z,42.40
2019-02-07T04:12:16.004Z,39.57
2019-02-07T04:15:22.541Z,38.70
2019-02-07T04:18:20.353Z,38.10
2019-02-07T04:21:11.810Z,35.53
2019-02-07T04:24:20.317Z,38.27
2019-02-07T04:27:12.732Z,35.40
2019-02-07T04:29:54.604Z,35.30
2019-02-07T04:32:43.750Z,37.63
2019-02-07T04:35:33.876Z,34.57
2019-02-07T04:38:33.081Z,34.93
2019-02-07T04:41:38.456Z,34.60
2019-02-07T04:44:37.702Z,38.10
2019-02-07T04:47:26.450Z,39.67
2019-02-07T04:50:15.242Z,40.87
2019-02-07T04:53:01.357Z,46.37
2019-02-07T04:55:54.213Z,44.60
2019-02-07T04:58:44.341Z,42.40
2019-02-07T05:01:46.513Z,43.50
2019-02-07T05:04:27.685Z,43.30
2019-02-07T05:07:16.330Z,43.93
2019-02-07T05:10:05.364Z,41.40
2019-02-07T05:12:54.605Z,40.83
2019-02-07T05:16:03.124Z,41.63
2019-02-07T05:19:08.151Z,40.43
2019-02-07T05:22:04.474Z,39.80
2019-02-07T05:24:57.409Z,40.67
2019-02-07T05:27:46.255Z,39.13
2019-02-07T05:30:48.901Z,42.63
2019-02-07T05:33:39.510Z,46.20
2019-02-07T05:36:28.007Z,46.73
2019-02-07T05:39:21.244Z,48.43
2019-02-07T05:42:16.507Z,49.27
2019-02-07T05:45:05.764Z,49.60
2019-02-07T05:48:02.066Z,47.77
2019-02-07T05:50:51.488Z,46.30
2019-02-07T05:53:38.408Z,48.83
2019-02-07T05:56:20.092Z,50.50
2019-02-07T05:59:11.727Z,52.47
2019-02-07T06:02:10.854Z,53.93
2019-02-07T06:05:08.822Z,52.50
2019-02-07T06:07:51.079Z,51.40
2019-02-07T06:10:35.970Z,50.23
2019-02-07T06:13:24.711Z,50.63
2019-02-07T06:16:13.717Z,49.37
2019-02-07T06:19:02.969Z,48.33
2019-02-07T06:21:52.307Z,49.47
2019-02-07T06:24:34.241Z,48.57
2019-02-07T06:27:28.343Z,53.47
2019-02-07T06:30:24.293Z,51.60
2019-02-07T06:33:13.517Z,50.17
2019-02-07T06:36:22.956Z,51.50
2019-02-07T06:39:13.719Z,51.10
2019-02-07T06:42:02.654Z,51.20
2019-02-07T06:44:52.039Z,51.53
2019-02-07T06:47:41.209Z,50.80
2019-02-07T06:50:37.405Z,51.57
2019-02-07T06:53:45.886Z,50.30
2019-02-07T06:56:35.068Z,51.77
2019-02-07T06:59:25.553Z,55.83
2019-02-07T07:02:33.949Z,54.10
2019-02-07T07:05:40.344Z,52.97
2019-02-07T07:08:33.270Z,53.97
2019-02-07T07:11:23.704Z,52.07
2019-02-07T07:14:12.599Z,53.50
2019-02-07T07:17:08.690Z,51.77
2019-02-07T07:19:57.718Z,52.23
2019-02-07T07:22:56.851Z,49.23
2019-02-07T07:25:41.757Z,50.50
2019-02-07T07:28:30.504Z,48.23
2019-02-07T07:31:23.245Z,47.13
2019-02-07T07:34:11.981Z,48.57
2019-02-07T07:37:05.103Z,44.10
2019-02-07T07:39:58.174Z,42.57
2019-02-07T07:42:54.119Z,42.30
2019-02-07T07:45:59.570Z,40.20
2019-02-07T07:48:58.924Z,37.13
2019-02-07T07:51:51.913Z,37.93
2019-02-07T07:54:41.092Z,36.83
2019-02-07T07:57:46.507Z,40.83
2019-02-07T08:00:45.696Z,37.90
2019-02-07T08:03:33.259Z,36.90
2019-02-07T08:06:18.518Z,38.80
2019-02-07T08:09:08.007Z,38.10
2019-02-07T08:12:07.483Z,38.43
2019-02-07T08:15:06.932Z,37.67
2019-02-07T08:18:08.974Z,38.77
2019-02-07T08:20:54.407Z,39.53
2019-02-07T08:23:53.493Z,37.43
2019-02-07T08:26:46.695Z,36.93
2019-02-07T08:29:36.685Z,37.87
2019-02-07T08:32:29.717Z,38.13
2019-02-07T08:35:18.122Z,38.50
2019-02-07T08:38:07.706Z,36.13
2019-02-07T08:40:47.373Z,34.20
2019-02-07T08:43:46.694Z,31.67
2019-02-07T08:46:39.291Z,31.63
2019-02-07T08:49:24.282Z,32.40
2019-02-07T08:52:29.722Z,32.17
2019-02-07T08:55:18.260Z,30.00
2019-02-07T08:58:14.557Z,29.57
2019-02-07T09:01:22.870Z,31.17
2019-02-07T09:04:11.464Z,33.77
2019-02-07T09:07:07.925Z,30.10
2019-02-07T09:09:57.980Z,33.03
2019-02-07T09:12:44.876Z,32.33
2019-02-07T09:15:33.793Z,31.40
2019-02-07T09:18:22.680Z,32.90
2019-02-07T09:21:21.243Z,32.00
2019-02-07T09:24:26.851Z,30.97
2019-02-07T09:27:14.318Z,29.90
2019-02-07T09:30:03.204Z,28.43
2019-02-07T09:32:52.007Z,27.80
2019-02-07T09:35:40.973Z,26.27
2019-02-07T09:38:37.047Z,25.60
2019-02-07T09:41:30.611Z,27.83
2019-02-07T09:44:13.786Z,28.37
2019-02-07T09:46:57.870Z,27.33
2019-02-07T09:49:57.083Z,23.90
2019-02-07T09:52:51.332Z,22.93
2019-02-07T09:55:33.259Z,21.40
2019-02-07T09:58:26.412Z,22.90
2019-02-07T10:01:25.717Z,21.03
2019-02-07T10:04:05.432Z,21.40
2019-02-07T10:06:58.546Z,20.47
2019-02-07T10:09:48.647Z,21.60
2019-02-07T10:12:38.749Z,22.90
2019-02-07T10:15:31.963Z,23.33
2019-02-07T10:18:32.550Z,22.63
2019-02-07T10:21:23.142Z,23.17
2019-02-07T10:24:05.661Z,21.43
2019-02-07T10:27:05.554Z,19.87
2019-02-07T10:29:48.908Z,20.37
2019-02-07T10:32:48.146Z,20.97
2019-02-07T10:35:44.323Z,19.63
2019-02-07T10:38:37.316Z,20.67
2019-02-07T10:41:32.062Z,22.10
2019-02-07T10:44:31.747Z,22.17
2019-02-07T10:47:24.586Z,24.90
2019-02-07T10:50:23.669Z,22.93
2019-02-07T10:53:16.432Z,22.30
2019-02-07T10:56:06.621Z,22.90
2019-02-07T10:58:59.694Z,22.70
2019-02-07T11:01:59.626Z,22.50
2019-02-07T11:04:48.286Z,23.53
2019-02-07T11:07:47.788Z,20.43
2019-02-07T11:10:36.528Z,21.83
2019-02-07T11:13:25.049Z,22.03
2019-02-07T11:16:28.743Z,19.70
2019-02-07T11:19:34.270Z,20.50
2019-02-07T11:22:27.619Z,20.17
2019-02-07T11:25:20.506Z,20.63
2019-02-07T11:28:20.193Z,20.67
2019-02-07T11:31:18.995Z,20.33
2019-02-07T11:34:11.769Z,21.13
2019-02-07T11:37:00.887Z,19.43
2019-02-07T11:39:50.874Z,19.83
2019-02-07T11:42:50.294Z,20.07
2019-02-07T11:45:41.767Z,20.00
2019-02-07T11:48:50.345Z,22.03
2019-02-07T11:51:31.651Z,22.70
2019-02-07T11:54:36.826Z,24.10
2019-02-07T11:57:32.629Z,25.47
2019-02-07T12:00:22.208Z,24.60
2019-02-07T12:03:18.627Z,23.10
2019-02-07T12:06:08.695Z,23.30
2019-02-07T12:08:56.777Z,22.57
2019-02-07T12:11:40.378Z,20.07
2019-02-07T12:14:29.105Z,20.33
2019-02-07T12:17:25.233Z,20.60
2019-02-07T12:20:24.201Z,20.60
2019-02-07T12:23:26.884Z,22.07
2019-02-07T12:26:23.034Z,21.67
2019-02-07T12:29:11.625Z,22.07
2019-02-07T12:32:11.151Z,21.23
2019-02-07T12:34:59.810Z,21.70
2019-02-07T12:37:55.667Z,21.27
2019-02-07T12:40:44.418Z,22.93
2019-02-07T12:43:25.986Z,20.50
2019-02-07T12:46:18.904Z,20.33
2019-02-07T12:49:12.876Z,17.63
2019-02-07T12:52:04.791Z,16.87
2019-02-07T12:54:47.651Z,16.57
2019-02-07T12:57:50.072Z,16.70
2019-02-07T13:00:44.155Z,16.67
2019-02-07T13:03:33.069Z,18.60
2019-02-07T13:06:18.817Z,18.63
2019-02-07T13:09:14.756Z,18.37
2019-02-07T13:11:58.284Z,19.30
2019-02-07T13:14:51.373Z,19.73
2019-02-07T13:17:44.676Z,21.00
2019-02-07T13:20:35.334Z,21.80
2019-02-07T13:23:24.590Z,26.40
2019-02-07T13:26:05.070Z,25.80
2019-02-07T13:28:53.631Z,26.50
2019-02-07T13:31:58.834Z,26.33
2019-02-07T13:34:54.643Z,25.67
2019-02-07T13:37:35.125Z,26.07
2019-02-07T13:40:45.658Z,26.93
2019-02-07T13:43:45.752Z,25.07
2019-02-07T13:46:41.386Z,26.40
2019-02-07T13:49:31.476Z,21.87
2019-02-07T13:52:21.541Z,18.13
2019-02-07T13:55:11.582Z,17.67
2019-02-07T13:58:16.962Z,16.17
2019-02-07T14:01:24.265Z,16.87
2019-02-07T14:04:14.282Z,16.57
2019-02-07T14:07:04.349Z,17.90
2019-02-07T14:09:57.073Z,16.57
2019-02-07T14:12:50.074Z,17.03
2019-02-07T14:15:43.278Z,16.20
2019-02-07T14:18:34.541Z,16.13
2019-02-07T14:21:18.460Z,16.73
2019-02-07T14:24:17.806Z,16.97
2019-02-07T14:27:09.453Z,16.50
2019-02-07T14:30:06.620Z,16.83
2019-02-07T14:32:49.820Z,17.43
2019-02-07T14:35:54.874Z,18.03
2019-02-07T14:38:47.686Z,17.43
2019-02-07T14:41:36.512Z,18.83
2019-02-07T14:44:38.825Z,19.23
2019-02-07T14:47:12.724Z,21.80
2019-02-07T14:49:43.825Z,22.60
2019-02-07T14:52:15.091Z,24.10
2019-02-07T14:54:46.188Z,24.77
2019-02-07T14:57:17.285Z,21.07
2019-02-07T14:59:48.535Z,26.93
2019-02-07T15:02:20.021Z,22.63
2019-02-07T15:04:51.195Z,22.30
2019-02-07T15:07:22.260Z,22.20
2019-02-07T15:09:53.379Z,22.40
2019-02-07T15:12:24.472Z,22.93
2019-02-07T15:14:55.971Z,23.33
2019-02-07T15:17:27.306Z,22.00
2019-02-07T15:19:58.419Z,21.17
2019-02-07T15:22:29.540Z,24.50
2019-02-07T15:25:00.621Z,26.20
2019-02-07T15:27:31.874Z,22.40
2019-02-07T15:30:03.036Z,26.63
2019-02-07T15:32:34.109Z,25.03
2019-02-07T15:35:08.559Z,31.77
2019-02-07T15:37:39.633Z,27.27
2019-02-07T15:40:14.857Z,25.73
2019-02-07T15:42:45.990Z,28.47
2019-02-07T15:45:17.283Z,29.10
2019-02-07T15:47:48.372Z,25.70
2019-02-07T15:50:22.248Z,24.47
2019-02-07T15:52:55.620Z,26.77
2019-02-07T15:55:26.788Z,29.37
2019-02-07T15:57:58.215Z,28.10
2019-02-07T16:00:47.459Z,29.27
2019-02-07T16:03:36.787Z,29.70
2019-02-07T16:06:07.837Z,31.20
2019-02-07T16:08:38.952Z,29.27
2019-02-07T16:11:10.048Z,30.57
2019-02-07T16:13:41.125Z,30.37
2019-02-07T16:16:13.267Z,32.70
2019-02-07T16:18:44.406Z,33.63
2019-02-07T16:21:16.072Z,32.83
2019-02-07T16:23:47.133Z,31.47
2019-02-07T16:26:18.207Z,32.90
2019-02-07T16:28:49.263Z,33.33
2019-02-07T16:31:20.296Z,33.83
2019-02-07T16:33:51.371Z,32.93
2019-02-07T16:36:22.985Z,31.03
2019-02-07T16:38:54.376Z,32.90
2019-02-07T16:41:25.791Z,31.50
2019-02-07T16:43:57.055Z,32.10
2019-02-07T16:46:28.160Z,33.27
2019-02-07T16:48:59.243Z,33.20
2019-02-07T16:51:31.708Z,32.70
2019-02-07T16:54:03.054Z,33.27
2019-02-07T16:56:34.260Z,33.00
2019-02-07T16:59:05.410Z,31.93
2019-02-07T17:01:36.591Z,33.27
2019-02-07T17:04:08.194Z,33.27
2019-02-07T17:06:39.389Z,33.93
2019-02-07T17:09:28.624Z,33.43
2019-02-07T17:12:01.032Z,33.10
2019-02-07T17:14:32.603Z,34.27
2019-02-07T17:17:05.567Z,33.50
2019-02-07T17:19:36.945Z,30.60
2019-02-07T17:22:08.253Z,31.73
2019-02-07T17:24:39.614Z,31.50
2019-02-07T17:27:10.726Z,31.53
2019-02-07T17:29:42.241Z,30.03
2019-02-07T17:32:13.720Z,32.93
2019-02-07T17:34:45.387Z,31.30
2019-02-07T17:37:16.880Z,30.47
2019-02-07T17:39:48.542Z,29.53
2019-02-07T17:42:19.920Z,32.97
2019-02-07T17:44:51.099Z,41.33
2019-02-07T17:47:28.276Z,37.27
2019-02-07T17:50:00.959Z,38.47
2019-02-07T17:52:32.079Z,39.30
2019-02-07T17:55:03.245Z,40.90
2019-02-07T17:57:36.153Z,40.50
2019-02-07T18:00:28.170Z,38.43
2019-02-07T18:02:59.436Z,39.03
2019-02-07T18:05:31.003Z,39.67
2019-02-07T18:08:02.334Z,38.03
2019-02-07T18:10:33.718Z,40.40
2019-02-07T18:13:05.471Z,42.17
2019-02-07T18:15:36.956Z,43.17
2019-02-07T18:18:08.081Z,44.53
2019-02-07T18:20:39.161Z,39.17
2019-02-07T18:23:10.362Z,44.47
2019-02-07T18:25:41.505Z,48.47
2019-02-07T18:28:13.091Z,44.53
2019-02-07T18:30:46.915Z,43.27
2019-02-07T18:33:18.093Z,42.17
2019-02-07T18:35:49.172Z,43.07
2019-02-07T18:38:20.390Z,44.63
2019-02-07T18:40:51.700Z,46.37
2019-02-07T18:43:22.895Z,45.80
2019-02-07T18:45:54.177Z,46.83
2019-02-07T18:48:25.441Z,45.63
2019-02-07T18:50:56.609Z,49.57
2019-02-07T18:53:28.067Z,50.20
2019-02-07T18:55:59.273Z,53.13
2019-02-07T18:58:30.507Z,50.77
2019-02-07T19:01:02.518Z,53.27
2019-02-07T19:03:34.129Z,49.57
2019-02-07T19:06:06.251Z,49.53
2019-02-07T19:08:37.814Z,48.63
2019-02-07T19:11:09.137Z,49.03
2019-02-07T19:13:40.318Z,51.80
2019-02-07T19:16:16.716Z,51.43
2019-02-07T19:18:48.223Z,53.90
2019-02-07T19:21:19.372Z,47.83
2019-02-07T19:23:50.555Z,51.67
2019-02-07T19:26:22.872Z,51.47
2019-02-07T19:28:55.036Z,52.37
2019-02-07T19:31:26.923Z,53.53
2019-02-07T19:33:58.221Z,48.90
2019-02-07T19:36:29.490Z,49.67
2019-02-07T19:39:00.725Z,45.77
2019-02-07T19:41:32.530Z,43.87
2019-02-07T19:44:03.852Z,50.17
2019-02-07T19:46:35.148Z,58.37
2019-02-07T19:49:06.976Z,55.83
2019-02-07T19:51:38.704Z,52.97
2019-02-07T19:54:10.053Z,50.67
2019-02-07T19:56:41.190Z,49.13
2019-02-07T19:59:12.436Z,48.03
2019-02-07T20:01:43.662Z,46.77
2019-02-07T20:04:14.919Z,48.40
2019-02-07T20:06:46.091Z,49.13
2019-02-07T20:09:17.343Z,53.77
2019-02-07T20:11:48.912Z,54.67
2019-02-07T20:14:20.178Z,46.13
2019-02-07T20:16:51.350Z,41.63
2019-02-07T20:19:22.496Z,42.83
2019-02-07T20:21:53.737Z,41.07
2019-02-07T20:24:25.086Z,39.13
2019-02-07T20:26:56.626Z,38.67
2019-02-07T20:29:27.813Z,37.90
2019-02-07T20:31:59.094Z,38.03
2019-02-07T20:34:33.185Z,38.10
2019-02-07T20:37:05.568Z,37.67
2019-02-07T20:39:40.122Z,39.33
2019-02-07T20:42:11.359Z,38.40
2019-02-07T20:44:42.615Z,38.97
2019-02-07T20:47:13.922Z,38.00
2019-02-07T20:49:46.216Z,37.47
2019-02-07T20:52:17.478Z,39.83
2019-02-07T20:54:48.684Z,39.03
2019-02-07T20:57:19.930Z,38.90
2019-02-07T20:59:51.405Z,40.80
2019-02-07T21:02:24.294Z,38.80
2019-02-07T21:05:00.793Z,41.93
2019-02-07T21:07:32.417Z,42.10
2019-02-07T21:10:03.897Z,43.63
2019-02-07T21:12:36.215Z,41.90
2019-02-07T21:15:10.963Z,41.10
2019-02-07T21:17:42.417Z,40.90
2019-02-07T21:20:15.956Z,37.10
2019-02-07T21:22:47.328Z,36.53
2019-02-07T21:25:23.770Z,34.37
2019-02-07T21:27:56.805Z,30.50
2019-02-07T21:30:32.833Z,30.90
2019-02-07T21:33:05.822Z,32.73
2019-02-07T21:35:37.756Z,30.07
2019-02-07T21:38:09.524Z,31.53
2019-02-07T21:40:44.111Z,30.97
2019-02-07T21:43:15.750Z,30.50
2019-02-07T21:45:47.046Z,32.63
2019-02-07T21:48:25.397Z,34.33
2019-02-07T21:50:56.719Z,33.37
2019-02-07T21:53:28.167Z,34.27
2019-02-07T21:56:00.107Z,34.63
2019-02-07T21:58:31.585Z,36.87
2019-02-07T22:01:08.156Z,36.77
2019-02-07T22:03:39.810Z,32.40
2019-02-07T22:06:15.648Z,35.60
2019-02-07T22:08:48.857Z,36.23
2019-02-07T22:11:20.828Z,32.43
2019-02-07T22:13:53.199Z,34.07
2019-02-07T22:16:24.644Z,32.23
2019-02-07T22:18:58.398Z,31.00
2019-02-07T22:21:32.147Z,30.07
2019-02-07T22:24:07.894Z,30.67
2019-02-07T22:26:44.707Z,31.70
2019-02-07T22:29:15.938Z,30.13
2019-02-07T22:31:52.152Z,31.67
2019-02-07T22:34:23.844Z,30.43
2019-02-07T22:36:56.530Z,31.77
2019-02-07T22:39:29.013Z,31.63
2019-02-07T22:42:00.689Z,31.77
2019-02-07T22:44:31.883Z,32.17
2019-02-07T22:47:03.078Z,30.67
2019-02-07T22:49:34.204Z,29.47
2019-02-07T22:52:05.702Z,27.43
2019-02-07T22:54:36.907Z,30.97
2019-02-07T22:57:08.076Z,27.47
2019-02-07T22:59:39.335Z,28.47
2019-02-07T23:02:11.401Z,28.90
2019-02-07T23:04:42.548Z,28.83
2019-02-07T23:07:13.703Z,29.63
2019-02-07T23:09:44.916Z,28.30
2019-02-07T23:12:16.053Z,31.30
2019-02-07T23:14:47.293Z,29.03
2019-02-07T23:17:18.432Z,33.97
2019-02-07T23:19:49.827Z,32.37
2019-02-07T23:22:20.920Z,31.83
2019-02-07T23:24:52.132Z,31.47
2019-02-07T23:27:23.306Z,32.07
2019-02-07T23:29:54.436Z,34.20
2019-02-07T23:32:25.626Z,34.77
2019-02-07T23:34:57.008Z,40.20
2019-02-07T23:37:28.176Z,35.10
2019-02-07T23:39:59.395Z,36.93
2019-02-07T23:42:30.607Z,35.53
2019-02-07T23:45:01.816Z,34.87
2019-02-07T23:47:32.943Z,37.07
2019-02-07T23:50:04.854Z,37.70
2019-02-07T23:52:36.070Z,49.77
2019-02-07T23:55:07.243Z,56.23
2019-02-07T23:57:38.410Z,60.83
